sensor_id;sensor_type;location;lat;lon;timestamp;pressure;altitude;pressure_sealevel;temperature;humidity
51460;BME280;37534;39.772;2.718;2023-02-28T00:00:47;100739.69;;;5.56;100.00
51460;BME280;37534;39.772;2.718;2023-02-28T00:03:13;100721.78;;;5.51;100.00
51460;BME280;37534;39.772;2.718;2023-02-28T00:05:39;100745.63;;;5.57;100.00
51460;BME280;37534;39.772;2.718;2023-02-28T00:08:04;100729.50;;;5.44;100.00
51460;BME280;37534;39.772;2.718;2023-02-28T00:10:31;100730.38;;;5.37;100.00
51460;BME280;37534;39.772;2.718;2023-02-28T00:13:01;100732.09;;;5.33;100.00
51460;BME280;37534;39.772;2.718;2023-02-28T00:15:27;100725.25;;;5.35;100.00
51460;BME280;37534;39.772;2.718;2023-02-28T00:17:53;100717.59;;;5.32;100.00
51460;BME280;37534;39.772;2.718;2023-02-28T00:20:19;100738.00;;;5.43;100.00
51460;BME280;37534;39.772;2.718;2023-02-28T00:22:48;100723.53;;;5.37;100.00
51460;BME280;37534;39.772;2.718;2023-02-28T00:25:17;100738.84;;;5.43;100.00
51460;BME280;37534;39.772;2.718;2023-02-28T00:27:43;100709.91;;;5.35;100.00
51460;BME280;37534;39.772;2.718;2023-02-28T00:30:14;100716.69;;;5.42;100.00
51460;BME280;37534;39.772;2.718;2023-02-28T00:32:40;100708.13;;;5.48;100.00
51460;BME280;37534;39.772;2.718;2023-02-28T00:35:07;100713.25;;;5.49;100.00
51460;BME280;37534;39.772;2.718;2023-02-28T00:37:33;100712.31;;;5.63;100.00
51460;BME280;37534;39.772;2.718;2023-02-28T00:39:59;100700.41;;;5.57;100.00
51460;BME280;37534;39.772;2.718;2023-02-28T00:42:25;100696.19;;;5.51;100.00
51460;BME280;37534;39.772;2.718;2023-02-28T00:44:50;100704.63;;;5.69;100.00
51460;BME280;37534;39.772;2.718;2023-02-28T00:47:16;100702.06;;;5.66;100.00
51460;BME280;37534;39.772;2.718;2023-02-28T00:49:42;100691.81;;;5.69;100.00
51460;BME280;37534;39.772;2.718;2023-02-28T00:52:07;100696.06;;;5.68;100.00
51460;BME280;37534;39.772;2.718;2023-02-28T00:54:33;100699.50;;;5.66;100.00
51460;BME280;37534;39.772;2.718;2023-02-28T00:56:59;100709.75;;;5.66;100.00
51460;BME280;37534;39.772;2.718;2023-02-28T00:59:24;100694.38;;;5.67;100.00
51460;BME280;37534;39.772;2.718;2023-02-28T01:01:50;100663.78;;;5.49;100.00
51460;BME280;37534;39.772;2.718;2023-02-28T01:04:16;100693.50;;;5.70;100.00
51460;BME280;37534;39.772;2.718;2023-02-28T01:06:42;100701.22;;;5.67;100.00
51460;BME280;37534;39.772;2.718;2023-02-28T01:09:08;100702.06;;;5.66;100.00
51460;BME280;37534;39.772;2.718;2023-02-28T01:11:34;100698.69;;;5.58;100.00
51460;BME280;37534;39.772;2.718;2023-02-28T01:14:00;100702.13;;;5.52;100.00
51460;BME280;37534;39.772;2.718;2023-02-28T01:16:26;100695.28;;;5.59;100.00
51460;BME280;37534;39.772;2.718;2023-02-28T01:18:52;100705.53;;;5.60;100.00
51460;BME280;37534;39.772;2.718;2023-02-28T01:21:20;100713.19;;;5.62;100.00
51460;BME280;37534;39.772;2.718;2023-02-28T01:23:46;100710.66;;;5.57;100.00
51460;BME280;37534;39.772;2.718;2023-02-28T01:26:14;100714.97;;;5.47;100.00
51460;BME280;37534;39.772;2.718;2023-02-28T01:28:41;100713.25;;;5.45;100.00
51460;BME280;37534;39.772;2.718;2023-02-28T01:31:07;100721.88;;;5.33;100.00
51460;BME280;37534;39.772;2.718;2023-02-28T01:33:33;100703.13;;;5.22;100.00
51460;BME280;37534;39.772;2.718;2023-02-28T01:36:04;100715.09;;;5.23;100.00
51460;BME280;37534;39.772;2.718;2023-02-28T01:38:30;100693.00;;;5.00;100.00
51460;BME280;37534;39.772;2.718;2023-02-28T01:40:56;100702.31;;;5.15;100.00
51460;BME280;37534;39.772;2.718;2023-02-28T01:43:24;100698.03;;;5.22;100.00
51460;BME280;37534;39.772;2.718;2023-02-28T01:45:52;100681.00;;;5.14;100.00
51460;BME280;37534;39.772;2.718;2023-02-28T01:48:19;100700.56;;;5.28;100.00
51460;BME280;37534;39.772;2.718;2023-02-28T01:50:47;100703.97;;;5.30;100.00
51460;BME280;37534;39.772;2.718;2023-02-28T01:53:17;100698.84;;;5.25;100.00
51460;BME280;37534;39.772;2.718;2023-02-28T01:55:47;100702.25;;;5.27;100.00
51460;BME280;37534;39.772;2.718;2023-02-28T01:58:14;100703.13;;;5.22;100.00
51460;BME280;37534;39.772;2.718;2023-02-28T02:00:40;100692.06;;;5.18;100.00
51460;BME280;37534;39.772;2.718;2023-02-28T02:03:13;100698.84;;;5.22;100.00
51460;BME280;37534;39.772;2.718;2023-02-28T02:05:40;100711.69;;;5.18;100.00
51460;BME280;37534;39.772;2.718;2023-02-28T02:08:19;100712.53;;;5.17;100.00
51460;BME280;37534;39.772;2.718;2023-02-28T02:10:52;100710.81;;;5.20;100.00
51460;BME280;37534;39.772;2.718;2023-02-28T02:13:22;100711.69;;;5.18;100.00
51460;BME280;37534;39.772;2.718;2023-02-28T02:19:32;100688.63;;;5.22;100.00
51460;BME280;37534;39.772;2.718;2023-02-28T02:21:47;100699.69;;;5.29;100.00
51460;BME280;37534;39.772;2.718;2023-02-28T02:27:55;100681.00;;;5.18;100.00
51460;BME280;37534;39.772;2.718;2023-02-28T02:33:06;100674.16;;;5.26;100.00
51460;BME280;37534;39.772;2.718;2023-02-28T02:35:46;100683.53;;;5.21;100.00
51460;BME280;37534;39.772;2.718;2023-02-28T02:38:33;100679.28;;;5.23;100.00
51460;BME280;37534;39.772;2.718;2023-02-28T02:43:48;100687.78;;;5.25;100.00
51460;BME280;37534;39.772;2.718;2023-02-28T02:46:21;100663.00;;;5.34;100.00
51460;BME280;37534;39.772;2.718;2023-02-28T02:48:50;100674.13;;;5.27;100.00
51460;BME280;37534;39.772;2.718;2023-02-28T02:51:19;100692.84;;;5.34;100.00
51460;BME280;37534;39.772;2.718;2023-02-28T02:54:03;100670.72;;;5.27;100.00
51460;BME280;37534;39.772;2.718;2023-02-28T02:56:32;100672.44;;;5.20;100.00
51460;BME280;37534;39.772;2.718;2023-02-28T02:59:04;100655.41;;;5.14;100.00
51460;BME280;37534;39.772;2.718;2023-02-28T03:01:32;100665.66;;;5.21;100.00
51460;BME280;37534;39.772;2.718;2023-02-28T03:04:08;100672.44;;;5.28;100.00
51460;BME280;37534;39.772;2.718;2023-02-28T03:06:34;100678.44;;;5.18;100.00
51460;BME280;37534;39.772;2.718;2023-02-28T03:09:01;100687.78;;;5.20;100.00
51460;BME280;37534;39.772;2.718;2023-02-28T03:11:27;100681.03;;;5.05;100.00
51460;BME280;37534;39.772;2.718;2023-02-28T03:25:26;100681.91;;;5.00;100.00
51460;BME280;37534;39.772;2.718;2023-02-28T03:30:52;100678.47;;;5.10;100.00
51460;BME280;37534;39.772;2.718;2023-02-28T03:33:40;100684.44;;;5.13;100.00
51460;BME280;37534;39.772;2.718;2023-02-28T03:36:13;100686.13;;;5.11;100.00
51460;BME280;37534;39.772;2.718;2023-02-28T03:38:48;100694.66;;;5.13;100.00
51460;BME280;37534;39.772;2.718;2023-02-28T03:41:21;100679.28;;;5.17;100.00
51460;BME280;37534;39.772;2.718;2023-02-28T03:43:53;100678.47;;;5.10;100.00
51460;BME280;37534;39.772;2.718;2023-02-28T03:46:24;100646.06;;;5.12;100.00
51460;BME280;37534;39.772;2.718;2023-02-28T03:48:55;100640.91;;;5.18;100.00
51460;BME280;37534;39.772;2.718;2023-02-28T03:51:25;100644.34;;;5.14;100.00
51460;BME280;37534;39.772;2.718;2023-02-28T03:53:57;100642.63;;;5.16;100.00
51460;BME280;37534;39.772;2.718;2023-02-28T03:56:31;100669.06;;;5.17;100.00
51460;BME280;37534;39.772;2.718;2023-02-28T03:59:02;100640.06;;;5.18;100.00
51460;BME280;37534;39.772;2.718;2023-02-28T04:01:41;100651.97;;;5.22;100.00
51460;BME280;37534;39.772;2.718;2023-02-28T04:04:09;100631.50;;;5.22;100.00
51460;BME280;37534;39.772;2.718;2023-02-28T04:06:35;100631.50;;;5.25;100.00
51460;BME280;37534;39.772;2.718;2023-02-28T04:09:02;100631.50;;;5.25;100.00
51460;BME280;37534;39.772;2.718;2023-02-28T04:11:37;100618.69;;;5.29;100.00
51460;BME280;37534;39.772;2.718;2023-02-28T04:14:04;100616.16;;;5.28;100.00
51460;BME280;37534;39.772;2.718;2023-02-28T04:16:31;100623.78;;;5.31;100.00
51460;BME280;37534;39.772;2.718;2023-02-28T04:18:57;100605.09;;;5.21;100.00
51460;BME280;37534;39.772;2.718;2023-02-28T04:21:35;100619.63;;;5.16;100.00
51460;BME280;37534;39.772;2.718;2023-02-28T04:24:01;100633.28;;;5.13;100.00
51460;BME280;37534;39.772;2.718;2023-02-28T04:26:31;100617.06;;;5.14;100.00
51460;BME280;37534;39.772;2.718;2023-02-28T04:28:57;100604.31;;;5.05;100.00
51460;BME280;37534;39.772;2.718;2023-02-28T04:31:23;100614.50;;;5.16;100.00
51460;BME280;37534;39.772;2.718;2023-02-28T04:33:49;100628.19;;;5.07;100.00
51460;BME280;37534;39.772;2.718;2023-02-28T04:36:14;100649.47;;;5.17;100.00
51460;BME280;37534;39.772;2.718;2023-02-28T04:38:43;100642.69;;;4.99;100.00
51460;BME280;37534;39.772;2.718;2023-02-28T04:41:09;100618.00;;;4.98;100.00
51460;BME280;37534;39.772;2.718;2023-02-28T04:43:35;100638.50;;;4.83;100.00
51460;BME280;37534;39.772;2.718;2023-02-28T04:46:03;100653.88;;;4.76;100.00
51460;BME280;37534;39.772;2.718;2023-02-28T04:48:30;100675.16;;;4.74;100.00
51460;BME280;37534;39.772;2.718;2023-02-28T04:51:03;100672.59;;;4.75;100.00
51460;BME280;37534;39.772;2.718;2023-02-28T04:53:29;100658.13;;;4.78;100.00
51460;BME280;37534;39.772;2.718;2023-02-28T04:55:56;100647.91;;;4.67;100.00
51460;BME280;37534;39.772;2.718;2023-02-28T04:58:22;100674.34;;;4.64;100.00
51460;BME280;37534;39.772;2.718;2023-02-28T05:00:49;100661.56;;;4.61;100.00
51460;BME280;37534;39.772;2.718;2023-02-28T05:03:15;100656.44;;;4.75;100.00
51460;BME280;37534;39.772;2.718;2023-02-28T05:05:41;100662.34;;;4.91;100.00
51460;BME280;37534;39.772;2.718;2023-02-28T05:08:06;100640.97;;;5.03;100.00
51460;BME280;37534;39.772;2.718;2023-02-28T05:10:32;100628.97;;;5.20;100.00
51460;BME280;37534;39.772;2.718;2023-02-28T05:12:58;100641.59;;;5.49;100.00
51460;BME280;37534;39.772;2.718;2023-02-28T05:15:24;100626.25;;;5.52;100.00
51460;BME280;37534;39.772;2.718;2023-02-28T05:17:49;100633.78;;;5.68;100.00
51460;BME280;37534;39.772;2.718;2023-02-28T05:20:15;100627.69;;;5.84;100.00
51460;BME280;37534;39.772;2.718;2023-02-28T05:22:41;100637.88;;;5.97;100.00
51460;BME280;37534;39.772;2.718;2023-02-28T05:25:13;100642.94;;;6.06;100.00
51460;BME280;37534;39.772;2.718;2023-02-28T05:27:40;100645.44;;;6.11;100.00
51460;BME280;37534;39.772;2.718;2023-02-28T05:30:06;100624.94;;;6.12;100.00
51460;BME280;37534;39.772;2.718;2023-02-28T05:32:38;100620.50;;;6.30;100.00
51460;BME280;37534;39.772;2.718;2023-02-28T05:35:09;100617.84;;;6.40;100.00
51460;BME280;37534;39.772;2.718;2023-02-28T05:37:35;100643.34;;;6.53;100.00
51460;BME280;37534;39.772;2.718;2023-02-28T05:40:01;100659.56;;;6.53;100.00
51460;BME280;37534;39.772;2.718;2023-02-28T05:42:26;100651.88;;;6.52;100.00
51460;BME280;37534;39.772;2.718;2023-02-28T05:44:52;100626.25;;;6.52;100.00
51460;BME280;37534;39.772;2.718;2023-02-28T05:47:18;100635.66;;;6.51;100.00
51460;BME280;37534;39.772;2.718;2023-02-28T05:49:43;100681.69;;;6.63;100.00
51460;BME280;37534;39.772;2.718;2023-02-28T05:52:09;100644.06;;;6.65;100.00
51460;BME280;37534;39.772;2.718;2023-02-28T05:54:35;100650.03;;;6.66;100.00
51460;BME280;37534;39.772;2.718;2023-02-28T05:57:01;100654.34;;;6.62;100.00
51460;BME280;37534;39.772;2.718;2023-02-28T05:59:27;100678.97;;;6.80;100.00
51460;BME280;37534;39.772;2.718;2023-02-28T06:01:52;100684.97;;;6.75;100.00
51460;BME280;37534;39.772;2.718;2023-02-28T06:04:20;100690.09;;;6.76;100.00
51460;BME280;37534;39.772;2.718;2023-02-28T06:06:49;100687.59;;;6.72;100.00
51460;BME280;37534;39.772;2.718;2023-02-28T06:09:16;100711.53;;;6.68;100.00
51460;BME280;37534;39.772;2.718;2023-02-28T06:11:43;100703.84;;;6.66;100.00
51460;BME280;37534;39.772;2.718;2023-02-28T06:14:15;100705.56;;;6.67;100.00
51460;BME280;37534;39.772;2.718;2023-02-28T06:16:41;100694.53;;;6.60;100.00
51460;BME280;37534;39.772;2.718;2023-02-28T06:19:06;100654.41;;;6.56;100.00
51460;BME280;37534;39.772;2.718;2023-02-28T06:21:32;100669.66;;;6.72;100.00
51460;BME280;37534;39.772;2.718;2023-02-28T06:23:58;100686.72;;;6.70;100.00
51460;BME280;37534;39.772;2.718;2023-02-28T06:26:25;100679.16;;;6.59;100.00
51460;BME280;37534;39.772;2.718;2023-02-28T06:28:50;100683.53;;;6.49;100.00
51460;BME280;37534;39.772;2.718;2023-02-28T06:31:17;100686.13;;;6.44;100.00
51460;BME280;37534;39.772;2.718;2023-02-28T06:33:45;100672.38;;;6.53;100.00
51460;BME280;37534;39.772;2.718;2023-02-28T06:36:12;100680.03;;;6.56;100.00
51460;BME280;37534;39.772;2.718;2023-02-28T06:38:38;100692.00;;;6.57;100.00
51460;BME280;37534;39.772;2.718;2023-02-28T06:41:05;100734.72;;;6.58;100.00
51460;BME280;37534;39.772;2.718;2023-02-28T06:43:33;100711.66;;;6.57;100.00
51460;BME280;37534;39.772;2.718;2023-02-28T06:46:00;100707.34;;;6.60;100.00
51460;BME280;37534;39.772;2.718;2023-02-28T06:48:27;100721.03;;;6.59;100.00
51460;BME280;37534;39.772;2.718;2023-02-28T06:51:01;100710.72;;;6.62;100.00
51460;BME280;37534;39.772;2.718;2023-02-28T06:53:27;100708.97;;;6.68;100.00
51460;BME280;37534;39.772;2.718;2023-02-28T06:55:52;100704.66;;;6.71;100.00
51460;BME280;37534;39.772;2.718;2023-02-28T06:58:18;100693.56;;;6.71;100.00
51460;BME280;37534;39.772;2.718;2023-02-28T07:00:45;100715.59;;;6.89;100.00
51460;BME280;37534;39.772;2.718;2023-02-28T07:03:12;100731.00;;;6.87;100.00
51460;BME280;37534;39.772;2.718;2023-02-28T07:05:39;100742.13;;;6.88;100.00
51460;BME280;37534;39.772;2.718;2023-02-28T07:08:05;100742.16;;;6.83;100.00
51460;BME280;37534;39.772;2.718;2023-02-28T07:10:32;100733.75;;;6.70;100.00
51460;BME280;37534;39.772;2.718;2023-02-28T07:12:59;100739.63;;;6.80;100.00
51460;BME280;37534;39.772;2.718;2023-02-28T07:15:25;100729.31;;;6.88;100.00
51460;BME280;37534;39.772;2.718;2023-02-28T07:17:50;100724.25;;;6.80;100.00
51460;BME280;37534;39.772;2.718;2023-02-28T07:20:16;100722.59;;;6.76;100.00
51460;BME280;37534;39.772;2.718;2023-02-28T07:22:42;100720.81;;;6.84;100.00
51460;BME280;37534;39.772;2.718;2023-02-28T07:25:08;100750.66;;;6.88;100.00
51460;BME280;37534;39.772;2.718;2023-02-28T07:27:34;100729.25;;;6.92;100.00
51460;BME280;37534;39.772;2.718;2023-02-28T07:30:00;100731.00;;;6.87;100.00
51460;BME280;37534;39.772;2.718;2023-02-28T07:32:27;100753.25;;;6.88;100.00
51460;BME280;37534;39.772;2.718;2023-02-28T07:34:53;100748.09;;;6.91;100.00
51460;BME280;37534;39.772;2.718;2023-02-28T07:37:19;100751.47;;;6.93;100.00
51460;BME280;37534;39.772;2.718;2023-02-28T07:39:45;100701.94;;;6.87;100.00
51460;BME280;37534;39.772;2.718;2023-02-28T07:42:11;100726.75;;;6.88;100.00
51460;BME280;37534;39.772;2.718;2023-02-28T07:44:40;100749.81;;;6.88;100.00
51460;BME280;37534;39.772;2.718;2023-02-28T07:47:10;100790.81;;;6.92;100.00
51460;BME280;37534;39.772;2.718;2023-02-28T07:49:37;100768.63;;;6.88;100.00
51460;BME280;37534;39.772;2.718;2023-02-28T07:52:06;100767.69;;;6.97;100.00
51460;BME280;37534;39.772;2.718;2023-02-28T07:54:33;100755.56;;;7.11;100.00
51460;BME280;37534;39.772;2.718;2023-02-28T07:56:58;100772.63;;;7.14;100.00
51460;BME280;37534;39.772;2.718;2023-02-28T07:59:24;100773.56;;;7.07;100.00
51460;BME280;37534;39.772;2.718;2023-02-28T08:01:50;100777.84;;;7.06;100.00
51460;BME280;37534;39.772;2.718;2023-02-28T08:04:17;100813.78;;;7.01;100.00
51460;BME280;37534;39.772;2.718;2023-02-28T08:06:42;100786.47;;;6.99;100.00
51460;BME280;37534;39.772;2.718;2023-02-28T08:09:08;100778.78;;;6.97;100.00
51460;BME280;37534;39.772;2.718;2023-02-28T08:11:34;100795.00;;;6.98;100.00
51460;BME280;37534;39.772;2.718;2023-02-28T08:14:00;100810.38;;;7.04;100.00
51460;BME280;37534;39.772;2.718;2023-02-28T08:16:25;100799.28;;;6.99;100.00
51460;BME280;37534;39.772;2.718;2023-02-28T08:18:52;100802.72;;;6.98;100.00
51460;BME280;37534;39.772;2.718;2023-02-28T08:21:19;100813.88;;;6.92;100.00
51460;BME280;37534;39.772;2.718;2023-02-28T08:23:48;100789.06;;;6.94;100.00
51460;BME280;37534;39.772;2.718;2023-02-28T08:26:15;100789.06;;;6.94;100.00
51460;BME280;37534;39.772;2.718;2023-02-28T08:28:40;100802.66;;;7.04;100.00
51460;BME280;37534;39.772;2.718;2023-02-28T08:31:11;100817.19;;;7.05;100.00
51460;BME280;37534;39.772;2.718;2023-02-28T08:33:37;100807.84;;;6.99;100.00
51460;BME280;37534;39.772;2.718;2023-02-28T08:36:04;100860.78;;;7.07;100.00
51460;BME280;37534;39.772;2.718;2023-02-28T08:38:30;100798.38;;;7.03;100.00
51460;BME280;37534;39.772;2.718;2023-02-28T08:41:07;100827.41;;;7.10;100.00
51460;BME280;37534;39.772;2.718;2023-02-28T08:43:34;100827.41;;;7.11;100.00
51460;BME280;37534;39.772;2.718;2023-02-28T08:46:00;100864.16;;;7.12;100.00
51460;BME280;37534;39.772;2.718;2023-02-28T08:48:27;100847.13;;;7.04;100.00
51460;BME280;37534;39.772;2.718;2023-02-28T08:51:00;100856.47;;;7.09;100.00
51460;BME280;37534;39.772;2.718;2023-02-28T08:53:26;100841.16;;;7.02;100.00
51460;BME280;37534;39.772;2.718;2023-02-28T08:56:03;100848.94;;;6.93;100.00
51460;BME280;37534;39.772;2.718;2023-02-28T08:58:29;100860.78;;;7.07;100.00
51460;BME280;37534;39.772;2.718;2023-02-28T09:00:55;100848.91;;;6.96;100.00
51460;BME280;37534;39.772;2.718;2023-02-28T09:03:23;100861.78;;;6.89;100.00
51460;BME280;37534;39.772;2.718;2023-02-28T09:05:57;100857.66;;;6.71;100.00
51460;BME280;37534;39.772;2.718;2023-02-28T09:08:24;100867.94;;;6.66;100.00
51460;BME280;37534;39.772;2.718;2023-02-28T09:10:50;100852.53;;;6.71;100.00
51460;BME280;37534;39.772;2.718;2023-02-28T09:13:17;100858.50;;;6.71;100.00
51460;BME280;37534;39.772;2.718;2023-02-28T09:15:43;100879.00;;;6.79;100.00
51460;BME280;37534;39.772;2.718;2023-02-28T09:18:10;100862.72;;;6.80;100.00
51460;BME280;37534;39.772;2.718;2023-02-28T09:20:40;100884.06;;;6.83;100.00
51460;BME280;37534;39.772;2.718;2023-02-28T09:23:07;100875.44;;;6.92;100.00
51460;BME280;37534;39.772;2.718;2023-02-28T09:25:35;100889.19;;;6.87;100.00
51460;BME280;37534;39.772;2.718;2023-02-28T09:28:01;100907.03;;;6.97;100.00
51460;BME280;37534;39.772;2.718;2023-02-28T09:30:26;100861.72;;;6.98;100.00
51460;BME280;37534;39.772;2.718;2023-02-28T09:32:52;100906.16;;;7.01;100.00
51460;BME280;37534;39.772;2.718;2023-02-28T09:35:23;100893.31;;;7.04;100.00
51460;BME280;37534;39.772;2.718;2023-02-28T09:37:51;100936.09;;;6.99;100.00
51460;BME280;37534;39.772;2.718;2023-02-28T09:40:18;100898.53;;;6.94;100.00
51460;BME280;37534;39.772;2.718;2023-02-28T09:42:50;100942.03;;;7.08;100.00
51460;BME280;37534;39.772;2.718;2023-02-28T09:45:33;100932.69;;;6.99;100.00
51460;BME280;37534;39.772;2.718;2023-02-28T09:48:13;100942.13;;;6.97;100.00
51460;BME280;37534;39.772;2.718;2023-02-28T09:50:48;100915.56;;;6.99;100.00
51460;BME280;37534;39.772;2.718;2023-02-28T09:53:29;100955.63;;;7.19;100.00
51460;BME280;37534;39.772;2.718;2023-02-28T10:02:03;100911.97;;;7.20;100.00
51460;BME280;37534;39.772;2.718;2023-02-28T10:04:47;100948.72;;;7.26;100.00
51460;BME280;37534;39.772;2.718;2023-02-28T10:10:07;100960.72;;;7.25;100.00
51460;BME280;37534;39.772;2.718;2023-02-28T10:12:41;100928.22;;;7.22;100.00
51460;BME280;37534;39.772;2.718;2023-02-28T10:15:14;100966.63;;;7.33;100.00
51460;BME280;37534;39.772;2.718;2023-02-28T10:17:45;100915.34;;;7.27;100.00
51460;BME280;37534;39.772;2.718;2023-02-28T10:20:18;100952.97;;;7.28;100.00
51460;BME280;37534;39.772;2.718;2023-02-28T10:23:11;100929.94;;;7.23;100.00
51460;BME280;37534;39.772;2.718;2023-02-28T10:25:39;100935.88;;;7.27;100.00
51460;BME280;37534;39.772;2.718;2023-02-28T10:28:15;100952.19;;;7.23;100.00
51460;BME280;37534;39.772;2.718;2023-02-28T10:30:50;100913.72;;;7.17;100.00
51460;BME280;37534;39.772;2.718;2023-02-28T10:33:27;100960.72;;;7.27;100.00
51460;BME280;37534;39.772;2.718;2023-02-28T10:35:53;100910.19;;;7.30;100.00
51460;BME280;37534;39.772;2.718;2023-02-28T10:38:22;100946.09;;;7.33;100.00
51460;BME280;37534;39.772;2.718;2023-02-28T10:40:48;100984.53;;;7.41;100.00
51460;BME280;37534;39.772;2.718;2023-02-28T10:48:40;100982.78;;;7.46;100.00
51460;BME280;37534;39.772;2.718;2023-02-28T10:51:13;100952.00;;;7.45;100.00
51460;BME280;37534;39.772;2.718;2023-02-28T10:53:54;100986.22;;;7.40;100.00
51460;BME280;37534;39.772;2.718;2023-02-28T10:56:25;100967.41;;;7.43;100.00
51460;BME280;37534;39.772;2.718;2023-02-28T11:03:56;101004.38;;;7.17;100.00
51460;BME280;37534;39.772;2.718;2023-02-28T11:06:26;101000.13;;;7.15;100.00
51460;BME280;37534;39.772;2.718;2023-02-28T11:09:04;101022.47;;;6.99;100.00
51460;BME280;37534;39.772;2.718;2023-02-28T11:11:42;101051.66;;;6.82;100.00
51460;BME280;37534;39.772;2.718;2023-02-28T11:14:21;101044.84;;;6.74;100.00
51460;BME280;37534;39.772;2.718;2023-02-28T11:16:48;101025.16;;;6.76;100.00
51460;BME280;37534;39.772;2.718;2023-02-28T11:19:25;101000.34;;;6.79;100.00
51460;BME280;37534;39.772;2.718;2023-02-28T11:21:55;101032.81;;;6.87;100.00
51460;BME280;37534;39.772;2.718;2023-02-28T11:24:42;101012.31;;;6.82;100.00
51460;BME280;37534;39.772;2.718;2023-02-28T11:29:51;101011.41;;;6.89;100.00
51460;BME280;37534;39.772;2.718;2023-02-28T11:32:20;101029.34;;;6.92;100.00
51460;BME280;37534;39.772;2.718;2023-02-28T11:35:00;101045.56;;;6.94;100.00
51460;BME280;37534;39.772;2.718;2023-02-28T11:37:28;101041.28;;;6.99;100.00
51460;BME280;37534;39.772;2.718;2023-02-28T11:39:55;101010.47;;;7.01;100.00
51460;BME280;37534;39.772;2.718;2023-02-28T11:42:31;101028.34;;;7.18;100.00
51460;BME280;37534;39.772;2.718;2023-02-28T11:47:51;101022.25;;;7.28;100.00
51460;BME280;37534;39.772;2.718;2023-02-28T11:56:43;101034.31;;;7.18;100.00
51460;BME280;37534;39.772;2.718;2023-02-28T11:59:24;100997.56;;;7.15;100.00
51460;BME280;37534;39.772;2.718;2023-02-28T12:04:55;101049.88;;;6.89;100.00
51460;BME280;37534;39.772;2.718;2023-02-28T12:07:28;101060.19;;;6.86;100.00
51460;BME280;37534;39.772;2.718;2023-02-28T12:13:02;101064.47;;;6.84;100.00
51460;BME280;37534;39.772;2.718;2023-02-28T12:18:50;101075.56;;;6.88;100.00
51460;BME280;37534;39.772;2.718;2023-02-28T12:26:48;101045.63;;;6.88;100.00
51460;BME280;37534;39.772;2.718;2023-02-28T12:32:21;101051.59;;;6.93;100.00
51460;BME280;37534;39.772;2.718;2023-02-28T12:35:23;101067.84;;;6.89;100.00
51460;BME280;37534;39.772;2.718;2023-02-28T12:37:59;101062.75;;;6.83;100.00
51460;BME280;37534;39.772;2.718;2023-02-28T12:40:43;101047.31;;;6.89;100.00
51460;BME280;37534;39.772;2.718;2023-02-28T12:43:09;101053.31;;;6.91;100.00
51460;BME280;37534;39.772;2.718;2023-02-28T12:48:27;101036.28;;;6.78;100.00
51460;BME280;37534;39.772;2.718;2023-02-28T12:50:55;101032.81;;;6.87;100.00
51460;BME280;37534;39.772;2.718;2023-02-28T12:53:27;101069.50;;;6.99;100.00
51460;BME280;37534;39.772;2.718;2023-02-28T12:56:24;101038.63;;;7.12;100.00
51460;BME280;37534;39.772;2.718;2023-02-28T12:58:58;101062.59;;;7.11;100.00
51460;BME280;37534;39.772;2.718;2023-02-28T13:04:53;101071.16;;;7.13;100.00
51460;BME280;37534;39.772;2.718;2023-02-28T13:10:24;101050.53;;;7.25;100.00
51460;BME280;37534;39.772;2.718;2023-02-28T13:12:52;101053.03;;;7.31;100.00
51460;BME280;37534;39.772;2.718;2023-02-28T13:15:27;101052.28;;;7.21;100.00
51460;BME280;37534;39.772;2.718;2023-02-28T13:18:00;101056.50;;;7.29;100.00
51460;BME280;37534;39.772;2.718;2023-02-28T13:20:35;101057.28;;;7.35;100.00
51460;BME280;37534;39.772;2.718;2023-02-28T13:23:02;101029.13;;;7.28;100.00
51460;BME280;37534;39.772;2.718;2023-02-28T13:28:09;101064.13;;;7.36;100.00
51460;BME280;37534;39.772;2.718;2023-02-28T13:36:07;101058.16;;;7.36;100.00
51460;BME280;37534;39.772;2.718;2023-02-28T13:38:36;101069.28;;;7.36;100.00
51460;BME280;37534;39.772;2.718;2023-02-28T13:44:18;101072.66;;;7.45;100.00
51460;BME280;37534;39.772;2.718;2023-02-28T14:05:33;101087.44;;;7.01;100.00
51460;BME280;37534;39.772;2.718;2023-02-28T14:08:06;101113.09;;;6.99;100.00
51460;BME280;37534;39.772;2.718;2023-02-28T14:10:41;101099.44;;;6.96;100.00
51460;BME280;37534;39.772;2.718;2023-02-28T14:15:57;101073.72;;;7.10;100.00
51460;BME280;37534;39.772;2.718;2023-02-28T14:18:30;101094.25;;;7.08;100.00
51460;BME280;37534;39.772;2.718;2023-02-28T14:21:21;101098.53;;;7.11;100.00
51460;BME280;37534;39.772;2.718;2023-02-28T14:38:05;101131.91;;;7.03;100.00
51460;BME280;37534;39.772;2.718;2023-02-28T14:40:35;101113.16;;;6.95;100.00
51460;BME280;37534;39.772;2.718;2023-02-28T14:43:05;101121.69;;;6.94;100.00
51460;BME280;37534;39.772;2.718;2023-02-28T14:45:35;101143.03;;;7.03;100.00
51460;BME280;37534;39.772;2.718;2023-02-28T14:48:04;101115.66;;;6.99;100.00
51460;BME280;37534;39.772;2.718;2023-02-28T14:50:36;101105.44;;;6.93;100.00
51460;BME280;37534;39.772;2.718;2023-02-28T14:53:02;101122.53;;;6.93;100.00
51460;BME280;37534;39.772;2.718;2023-02-28T14:55:31;101135.34;;;7.00;100.00
51460;BME280;37534;39.772;2.718;2023-02-28T14:58:00;101125.09;;;6.97;100.00
51460;BME280;37534;39.772;2.718;2023-02-28T15:00:34;101141.31;;;7.02;100.00
51460;BME280;37534;39.772;2.718;2023-02-28T15:03:18;101138.75;;;7.06;100.00
51460;BME280;37534;39.772;2.718;2023-02-28T15:05:55;101142.16;;;7.04;100.00
51460;BME280;37534;39.772;2.718;2023-02-28T15:08:21;101137.94;;;6.94;100.00
51460;BME280;37534;39.772;2.718;2023-02-28T15:10:59;101146.50;;;6.93;100.00
51460;BME280;37534;39.772;2.718;2023-02-28T15:13:47;101152.47;;;6.97;100.00